Stamford, NY (12167)

6:49 PM EST on January 21, 2017 (GMT -0500)
Van Dyke Ave | | Change Station
Active Advisory: Storm Warning

Elev 1940 ft 42.42 °N, 74.62 °W | Updated 13 seconds ago

Mostly Cloudy
Mostly Cloudy
44.6 °F
Feels Like 45 °F
N
0.0
Wind Variable Wind from NW
Gusts 0.0 mph

Today
High -- | Low -- °F
--% Chance of Precip.
Yesterday
High -- | Low -- °F
Precip. -- in
Pressure 29.80 in
Visibility 10.0 miles
Clouds Few 3600 ft
Few 18000 ft
Windchill 45 °F
Dew Point 42 °F
Humidity 90%
Rainfall 0.00 in
Snow Depth Not available.
7:21 AM 4:58 PM
Waning Crescent, 31% visible
METAR KALB 212251Z 00000KT 10SM FEW036 FEW180 07/03 A2979 RMK AO2 SLP089 T00670033
Pressure 29.80 in
Visibility 10.0 miles
Clouds Few 3600 ft
Few 18000 ft
Windchill 45 °F
Dew Point 42 °F
Humidity 90%
Rainfall 0.00 in
Snow Depth Not available.
7:21 AM 4:58 PM
Waning Crescent, 31% visible
METAR KALB 212251Z 00000KT 10SM FEW036 FEW180 07/03 A2979 RMK AO2 SLP089 T00670033

Get Your Daily Forecast Email!

Thanks for signing up!

Be on the lookout for a verification email in your inbox.

You'll start receiving the daily forecast at 8 AM.

×

10-Day Weather Forecast

Almanac

Astronomy

Jan. 21, 2017 Rise Set
Actual Time
Civil Twilight
Nautical Twilight
Astronomical Twilight
Moon
Length of Visible Light
Length of Day
Tomorrow will be .
, % of the Moon is Illuminated

Today's Extremes

State Highs State Lows

Community

WunderPhotos

Upload Photos

1,962,540 photos uploaded!

WunderBlog® & News

Nearby

Air Quality

  Air Quality AQ Index Pollutant
Not available.

Snow Depth

Station Depth Elevation

Earthquake Activity

City Distance Mag. Time & Date
Minimum magnitude displayed is 2.5.

Coastal Water Temperatures

Place Temperature

Stations

Nearby Weather Stations

Station Location Temp. Windchill Dew Point Humidity Wind Precip. Elev Updated Type
                   

Watches & Warnings

Storm Warning
Issued: 3:43 PM EST Jan. 21, 2017 – National Weather Service

... Storm Warning in effect from 1 am Monday to 1 am EST Tuesday...

The National Weather Service in Upton has issued a Storm
Warning... which is in effect from 1 am Monday to 1 am EST
Tuesday. The storm watch is no longer in effect.

* Winds and seas... east winds 35 to 45 kt with gusts up to 50 kt.
Seas 7 to 11 feet... and as high as 9 to 12 feet east of Orient
Point.

Precautionary/preparedness actions...

A Storm Warning means sustained winds or frequent gusts of 48 to
63 kt are expected or occurring. Recreational boaters should
remain in port... or take shelter until winds and waves subside.
Commercial vessels should prepare for very strong winds and
dangerous sea conditions... and consider remaining in port or
taking shelter in port until winds and waves subside.